M I D A S
Marine Information and Data Acquisition System
Tripno 1523 of the Zeeleeuw from 2008-07-22 06:44:23 to 2008-07-22 12:24:34
Back to CruiseResearch ActivitiesStationsMapUnderway DataData graphs

EquipmentUnitsComments
TimeDGPSUTC
LatitudeDGPSDM.mWGS84
LongitudeDGPSDM.mWGS84
SpeedMeteo Stationm/sRelative wind speed
DirectionMeteo StationdegRelative wind direction
TemperatureMeteo Stationdeg CelciusAir temperature
PressureMeteo StationPaAtmospheric pressure
HumidityMeteo Station%Relative humidity
Missing or incorrect values are displayed as -999
Metereological data collected by the RV Zeeleeuw from 2008-07-22 06:46:12 to 2008-07-22 12:28:47
Time Latitude Longitude Speed Direction Temperature Pressure Humidity
2008-07-22 06:47 51°13.636 2°55.992 -999 -999 -999 -999 -999
2008-07-22 06:48 51°13.659 2°55.894 -999 -999 -999 -999 -999
2008-07-22 06:49 51°13.697 2°55.795 -999 -999 -999 -999 -999
2008-07-22 06:50 51°13.714 2°55.765 -999 -999 -999 -999 -999
2008-07-22 06:51 51°13.717 2°55.782 -999 -999 -999 -999 -999
2008-07-22 06:52 51°13.699 2°55.737 -999 -999 -999 -999 -999
2008-07-22 06:53 51°13.723 2°55.731 -999 -999 -999 -999 -999
2008-07-22 06:54 51°13.812 2°55.654 -999 -999 -999 -999 -999
2008-07-22 06:55 51°13.943 2°55.545 -999 -999 -999 -999 -999
2008-07-22 06:56 51°14.074 2°55.444 -999 -999 -999 -999 -999
2008-07-22 06:57 51°14.213 2°55.32 -999 -999 -999 -999 -999
2008-07-22 06:58 51°14.329 2°55.109 -999 -999 -999 -999 -999
2008-07-22 06:59 51°14.434 2°54.862 -999 -999 -999 -999 -999
2008-07-22 07:00 51°14.555 2°54.633 -999 -999 -999 -999 -999
2008-07-22 07:01 51°14.712 2°54.489 -999 -999 -999 -999 -999
2008-07-22 07:02 51°14.871 2°54.361 -999 -999 -999 -999 -999
2008-07-22 07:03 51°15.03 2°54.229 -999 -999 -999 -999 -999
2008-07-22 07:04 51°15.196 2°54.098 10.7 315 -999 -999 -999
2008-07-22 07:05 51°15.352 2°53.975 12.5 316 16.1 102450 71
2008-07-22 07:06 51°15.518 2°53.837 11.3 32 16.2 102440 74
2008-07-22 07:07 51°15.695 2°53.728 9.3 40 16.2 102440 75
2008-07-22 07:08 51°15.872 2°53.625 12.6 34 16.2 102430 76
2008-07-22 07:09 51°16.046 2°53.514 12.9 34 16.1 102430 77
2008-07-22 07:10 51°16.223 2°53.405 13.6 35 16.1 102440 77
2008-07-22 07:11 51°16.401 2°53.295 10.6 316 16.1 102430 77
2008-07-22 07:12 51°16.585 2°53.18 12.3 318 16.1 102430 77
2008-07-22 07:13 51°16.772 2°53.069 13.8 38 16.2 102430 77
2008-07-22 07:14 51°16.955 2°52.959 13.1 32 16.2 102430 78
2008-07-22 07:15 51°17.141 2°52.848 10.5 315 16.2 102440 79
2008-07-22 07:16 51°17.328 2°52.744 9.9 38 16.2 102430 77
2008-07-22 07:17 51°17.518 2°52.651 9.9 38 16.2 102430 78
2008-07-22 07:18 51°17.707 2°52.554 9.7 33 16.2 102440 79
2008-07-22 07:19 51°17.893 2°52.443 11.1 38 16.2 102430 79
2008-07-22 07:20 51°18.08 2°52.332 13.8 36 16.1 102440 79
2008-07-22 07:21 51°18.27 2°52.236 11.3 35 16.2 102430 78
2008-07-22 07:22 51°18.46 2°52.134 10.4 41 16.2 102440 79
2008-07-22 07:23 51°18.653 2°52.05 10.9 38 16.2 102440 79
2008-07-22 07:24 51°18.85 2°51.997 11 39 16.2 102430 79
2008-07-22 07:25 51°19.045 2°51.941 10.8 36 16.2 102420 79
2008-07-22 07:26 51°19.236 2°51.878 12.8 32 16.1 102440 79
2008-07-22 07:27 51°19.425 2°51.813 12.7 34 16.2 102440 79
2008-07-22 07:28 51°19.616 2°51.761 11 37 16.2 102450 79
2008-07-22 07:29 51°19.808 2°51.709 10.1 232 16.2 102450 79
2008-07-22 07:30 51°19.999 2°51.662 11 37 16.2 102420 79
2008-07-22 07:31 51°20.193 2°51.623 10.6 34 16.2 102440 79
2008-07-22 07:32 51°20.387 2°51.584 10.7 232 16.2 102420 79
2008-07-22 07:33 51°20.584 2°51.55 13.4 36 16.2 102430 79
2008-07-22 07:34 51°20.78 2°51.515 13.1 38 16.2 102420 79
2008-07-22 07:35 51°20.974 2°51.486 13.3 35 16.2 102420 79
2008-07-22 07:36 51°21.17 2°51.449 10.2 37 16.3 102430 80
2008-07-22 07:37 51°21.365 2°51.428 12.7 37 16.2 102420 80
2008-07-22 07:38 51°21.56 2°51.404 10.7 233 16.3 102420 80
2008-07-22 07:39 51°21.757 2°51.384 10.2 37 16.3 102440 80
2008-07-22 07:40 51°21.953 2°51.356 10.9 37 16.3 102440 80
2008-07-22 07:41 51°22.15 2°51.319 12.9 28 16.3 102430 80
2008-07-22 07:42 51°22.348 2°51.29 11.3 233 16.3 102440 81
2008-07-22 07:43 51°22.545 2°51.255 11 38 16.3 102440 81
2008-07-22 07:44 51°22.743 2°51.222 12 36 16.2 102420 81
2008-07-22 07:45 51°22.943 2°51.192 11.8 38 16.3 102440 82
2008-07-22 07:46 51°23.143 2°51.159 12.9 31 16.3 102430 82
2008-07-22 07:47 51°23.342 2°51.133 10.3 232 16.3 102430 82
2008-07-22 07:48 51°23.543 2°51.103 11 39 16.3 102440 82
2008-07-22 07:49 51°23.741 2°51.068 13.8 38 16.3 102430 82
2008-07-22 07:50 51°23.941 2°51.032 9.9 237 16.3 102440 81
2008-07-22 07:51 51°24.139 2°50.99 14.4 36 16.3 102440 81
2008-07-22 07:52 51°24.336 2°50.95 12.6 39 16.2 102420 80
2008-07-22 07:53 51°24.53 2°50.906 10.7 40 16.2 102420 80
2008-07-22 07:54 51°24.724 2°50.859 13.4 38 16.3 102420 81
2008-07-22 07:55 51°24.918 2°50.815 11.1 37 16.4 102430 81
2008-07-22 07:56 51°25.112 2°50.769 11.9 36 16.3 102420 80
2008-07-22 07:57 51°25.308 2°50.727 12 33 16.3 102420 80
2008-07-22 07:58 51°25.503 2°50.688 12 35 16.3 102440 80
2008-07-22 07:59 51°25.698 2°50.649 11.8 234 16.3 102440 80
2008-07-22 08:00 51°25.891 2°50.611 14.7 32 16.3 102430 80
2008-07-22 08:01 51°26.082 2°50.57 13.6 36 16.3 102440 80
2008-07-22 08:02 51°26.276 2°50.52 14.4 35 16.3 102430 80
2008-07-22 08:03 51°26.471 2°50.471 11.1 34 16.2 102440 79
2008-07-22 08:04 51°26.665 2°50.425 14.2 32 16.3 102410 80
2008-07-22 08:05 51°26.857 2°50.383 11.3 38 16.2 102440 79
2008-07-22 08:06 51°27.051 2°50.338 10.8 37 16.3 102440 80
2008-07-22 08:07 51°27.242 2°50.29 13.6 36 16.2 102450 79
2008-07-22 08:08 51°27.436 2°50.246 12.4 34 16.2 102450 79
2008-07-22 08:09 51°27.63 2°50.203 12.8 36 16.2 102440 79
2008-07-22 08:10 51°27.824 2°50.16 11.7 39 16.3 102440 81
2008-07-22 08:11 51°28.017 2°50.124 11.3 33 16.3 102450 81
2008-07-22 08:12 51°28.211 2°50.076 15 32 16.2 102450 81
2008-07-22 08:13 51°28.404 2°50.03 12.7 36 16.2 102440 81
2008-07-22 08:14 51°28.595 2°49.983 14.8 36 16.2 102450 81
2008-07-22 08:15 51°28.787 2°49.936 12.1 232 16.2 102440 81
2008-07-22 08:16 51°28.977 2°49.893 12.2 32 16.2 102440 81
2008-07-22 08:17 51°29.169 2°49.856 13.6 38 16.2 102460 82
2008-07-22 08:18 51°29.361 2°49.821 10.5 39 16.2 102440 82
2008-07-22 08:19 51°29.552 2°49.786 10.3 233 16.1 102440 82
2008-07-22 08:20 51°29.726 2°49.872 12.2 242 16.1 102450 82
2008-07-22 08:21 51°29.867 2°50.064 10.7 246 16.3 102460 83
2008-07-22 08:22 51°30.01 2°50.255 10.3 243 16.3 102460 82
2008-07-22 08:23 51°30.156 2°50.438 10 247 16.4 102470 82
2008-07-22 08:24 51°30.297 2°50.628 9 245 16.4 102450 82
2008-07-22 08:25 51°30.438 2°50.823 7.4 248 16.4 102470 82
2008-07-22 08:26 51°30.556 2°51.054 8.9 256 16.4 102460 82
2008-07-22 08:27 51°30.66 2°51.303 8 251 16.5 102460 82
2008-07-22 08:28 51°30.761 2°51.555 8.1 250 16.6 102470 82
2008-07-22 08:29 51°30.866 2°51.802 5.8 251 16.6 102460 81
2008-07-22 08:30 51°30.972 2°52.048 7.1 255 16.6 102470 81
2008-07-22 08:31 51°31.077 2°52.295 6.7 252 16.6 102480 80
2008-07-22 08:32 51°31.181 2°52.541 8.3 251 16.7 102470 81
2008-07-22 08:33 51°31.287 2°52.784 7 248 16.8 102470 80
2008-07-22 08:34 51°31.392 2°53.031 7.7 255 16.7 102470 80
2008-07-22 08:35 51°31.496 2°53.277 8.9 247 16.8 102480 80
2008-07-22 08:36 51°31.601 2°53.524 6.6 252 16.8 102470 80
2008-07-22 08:37 51°31.705 2°53.773 9.5 254 16.9 102470 80
2008-07-22 08:38 51°31.809 2°54.021 6.9 248 16.9 102480 80
2008-07-22 08:39 51°31.916 2°54.267 6.7 245 16.9 102470 80
2008-07-22 08:40 51°32.058 2°54.44 9.5 235 16.9 102460 80
2008-07-22 08:41 51°32.236 2°54.389 15 32 16.7 102450 80
2008-07-22 08:42 51°32.401 2°54.228 14.6 317 16.5 102440 80
2008-07-22 08:43 51°32.569 2°54.075 12 316 16.4 102440 81
2008-07-22 08:44 51°32.74 2°53.93 14.9 315 16.3 102450 82
2008-07-22 08:45 51°32.909 2°53.786 13.9 318 16.3 102450 82
2008-07-22 08:46 51°33.077 2°53.642 12.9 317 16.2 102440 81
2008-07-22 08:47 51°33.231 2°53.457 14.4 324 16.1 102450 81
2008-07-22 08:48 51°33.285 2°53.151 14 344 16.2 102450 82
2008-07-22 08:49 51°33.177 2°52.863 12.2 353 16 102430 82
2008-07-22 08:50 51°33.019 2°52.615 12.7 353 15.9 102460 82
2008-07-22 08:51 51°32.887 2°52.335 13.1 346 15.7 102460 81
2008-07-22 08:52 51°32.773 2°52.033 11.3 349 15.7 102460 83
2008-07-22 08:53 51°32.655 2°51.739 11.3 349 15.7 102450 83
2008-07-22 08:54 51°32.54 2°51.446 12.8 348 15.6 102460 83
2008-07-22 08:55 51°32.425 2°51.152 13.3 348 15.6 102470 83
2008-07-22 08:56 51°32.322 2°50.852 12.6 343 15.6 102460 83
2008-07-22 08:57 51°32.352 2°50.538 13.8 328 15.6 102460 83
2008-07-22 08:58 51°32.471 2°50.288 12.9 322 15.7 102470 84
2008-07-22 08:59 51°32.606 2°50.06 15.6 324 15.8 102420 83
2008-07-22 09:00 51°32.741 2°49.833 13.3 322 15.8 102430 83
2008-07-22 09:01 51°32.877 2°49.605 12.7 323 15.9 102430 82
2008-07-22 09:02 51°33.013 2°49.378 15.2 320 15.9 102470 82
2008-07-22 09:03 51°33.166 2°49.197 13.6 316 15.9 102430 81
2008-07-22 09:04 51°33.328 2°49.044 14.6 316 15.9 102470 82
2008-07-22 09:05 51°33.498 2°48.916 14.4 317 15.9 102440 81
2008-07-22 09:06 51°33.667 2°48.789 13.2 316 15.9 102440 82
2008-07-22 09:07 51°33.839 2°48.678 11.6 316 15.9 102440 82
2008-07-22 09:08 51°34.014 2°48.598 13.6 38 15.8 102440 81
2008-07-22 09:09 51°34.189 2°48.517 11.1 34 15.8 102450 82
2008-07-22 09:10 51°34.364 2°48.434 13.5 33 15.8 102470 83
2008-07-22 09:11 51°34.538 2°48.347 13.1 316 15.8 102450 83
2008-07-22 09:12 51°34.713 2°48.339 12.8 37 15.8 102460 83
2008-07-22 09:13 51°34.887 2°48.372 11.9 37 15.8 102460 83
2008-07-22 09:14 51°35.058 2°48.429 9.8 37 15.8 102480 84
2008-07-22 09:15 51°35.228 2°48.489 11.1 36 15.7 102470 83
2008-07-22 09:16 51°35.399 2°48.55 8.5 236 15.8 102470 83
2008-07-22 09:17 51°35.57 2°48.612 11.5 32 15.8 102470 83
2008-07-22 09:18 51°35.743 2°48.671 9.5 234 15.8 102480 84
2008-07-22 09:19 51°35.917 2°48.731 9.8 39 15.9 102480 84
2008-07-22 09:20 51°36.088 2°48.791 8.6 35 15.8 102470 83
2008-07-22 09:21 51°36.261 2°48.848 10.8 36 15.8 102490 83
2008-07-22 09:22 51°36.432 2°48.909 11.6 35 15.8 102490 83
2008-07-22 09:23 51°36.605 2°48.963 8.4 235 15.8 102480 83
2008-07-22 09:24 51°36.777 2°49.019 9.2 234 15.7 102470 83
2008-07-22 09:25 51°36.947 2°49.074 9.2 34 15.8 102480 83
2008-07-22 09:26 51°37.117 2°49.134 9.4 33 15.7 102490 83
2008-07-22 09:27 51°37.29 2°49.188 11.7 236 15.7 102490 83
2008-07-22 09:28 51°37.46 2°49.242 9.2 233 15.8 102490 84
2008-07-22 09:29 51°37.629 2°49.296 10.3 35 15.7 102470 84
2008-07-22 09:30 51°37.799 2°49.351 10.7 236 15.7 102480 84
2008-07-22 09:31 51°37.97 2°49.4 11.1 238 15.8 102490 84
2008-07-22 09:32 51°38.138 2°49.452 9.1 238 15.8 102490 84
2008-07-22 09:33 51°38.304 2°49.507 10.9 31 15.8 102470 84
2008-07-22 09:34 51°38.475 2°49.559 9.4 33 15.8 102470 84
2008-07-22 09:35 51°38.641 2°49.612 8.1 237 15.7 102490 83
2008-07-22 09:36 51°38.81 2°49.667 10.3 234 15.7 102470 84
2008-07-22 09:37 51°38.979 2°49.722 10.8 236 15.8 102470 84
2008-07-22 09:38 51°39.145 2°49.775 8.7 35 15.8 102480 83
2008-07-22 09:39 51°39.313 2°49.829 9.1 235 15.8 102480 84
2008-07-22 09:40 51°39.48 2°49.882 10.6 235 15.8 102480 84
2008-07-22 09:41 51°39.648 2°49.935 8.7 236 15.8 102470 84
2008-07-22 09:42 51°39.816 2°49.989 9.4 33 15.8 102480 84
2008-07-22 09:43 51°39.98 2°50.06 7.3 243 15.8 102480 84
2008-07-22 09:44 51°40.114 2°50.229 7.5 241 15.8 102460 84
2008-07-22 09:45 51°40.227 2°50.436 5.3 247 15.9 102480 84
2008-07-22 09:46 51°40.282 2°50.703 2.9 255 16 102490 85
2008-07-22 09:47 51°40.264 2°50.997 1.3 250 16.1 102500 85
2008-07-22 09:48 51°40.18 2°51.281 0.5 31 16.2 102500 84
2008-07-22 09:49 51°40.089 2°51.56 0.7 10 16.3 102510 85
2008-07-22 09:50 51°39.961 2°51.81 2.3 23 16.5 102500 84
2008-07-22 09:51 51°39.833 2°52.059 4.8 18 16.4 102500 83
2008-07-22 09:52 51°39.704 2°52.308 1.7 30 16.4 102500 83
2008-07-22 09:53 51°39.576 2°52.559 2.2 22 16.3 102510 83
2008-07-22 09:54 51°39.449 2°52.807 3.6 11 16.2 102510 82
2008-07-22 09:55 51°39.32 2°53.056 2.3 13 16.2 102500 83
2008-07-22 09:56 51°39.181 2°53.295 2.9 5 16.1 102510 83
2008-07-22 09:57 51°39.04 2°53.529 3.3 19 16.1 102510 83
2008-07-22 09:58 51°38.898 2°53.759 3.5 22 16 102500 84
2008-07-22 09:59 51°38.757 2°53.989 2.9 25 16 102500 83
2008-07-22 10:00 51°38.616 2°54.219 2.3 24 16 102510 83
2008-07-22 10:01 51°38.477 2°54.456 2.2 28 16 102510 84
2008-07-22 10:02 51°38.332 2°54.69 3 18 16 102510 83
2008-07-22 10:03 51°38.19 2°54.923 2.6 20 16 102500 83
2008-07-22 10:04 51°38.035 2°55.139 5.6 13 16.1 102500 83
2008-07-22 10:05 51°37.849 2°55.305 6.4 14 16 102510 83
2008-07-22 10:06 51°37.642 2°55.393 7.7 1 15.9 102510 83
2008-07-22 10:07 51°37.458 2°55.209 12.7 345 15.9 102490 84
2008-07-22 10:08 51°37.33 2°54.91 12.3 342 15.7 102460 84
2008-07-22 10:09 51°37.203 2°54.609 11.7 343 15.7 102470 84
2008-07-22 10:10 51°37.076 2°54.308 12.3 340 15.6 102460 84
2008-07-22 10:11 51°36.951 2°54.006 12.1 342 15.7 102470 85
2008-07-22 10:12 51°36.825 2°53.701 10.5 343 15.7 102480 85
2008-07-22 10:13 51°36.702 2°53.395 11.1 344 15.7 102480 84
2008-07-22 10:14 51°36.576 2°53.094 11.3 344 15.7 102470 84
2008-07-22 10:15 51°36.449 2°52.792 12.3 343 15.7 102460 84
2008-07-22 10:16 51°36.324 2°52.488 11.7 342 15.7 102470 84
2008-07-22 10:17 51°36.146 2°52.304 7.3 2 15.6 102490 83
2008-07-22 10:18 51°35.922 2°52.321 9.1 360 15.7 102510 84
2008-07-22 10:19 51°35.699 2°52.329 6.3 2 15.7 102520 84
2008-07-22 10:20 51°35.476 2°52.345 6.6 1 15.6 102510 84
2008-07-22 10:21 51°35.252 2°52.355 7.7 -999 15.5 102520 84
2008-07-22 10:22 51°35.033 2°52.376 5.4 9 15.5 102520 84
2008-07-22 10:23 51°34.871 2°52.564 1.8 355 15.6 102520 84
2008-07-22 10:24 51°34.835 2°52.841 3.3 252 15.7 102530 85
2008-07-22 10:25 51°34.916 2°53.076 6 242 15.9 102520 85
2008-07-22 10:26 51°35 2°53.313 5 242 16 102520 84
2008-07-22 10:27 51°35.08 2°53.559 4.9 247 16.1 102530 84
2008-07-22 10:28 51°35.158 2°53.802 5.8 251 16.2 102520 84
2008-07-22 10:29 51°35.237 2°54.043 5.5 244 16.3 102530 83
2008-07-22 10:30 51°35.316 2°54.287 7.6 247 16.5 102510 83
2008-07-22 10:31 51°35.394 2°54.534 5.8 248 16.5 102520 82
2008-07-22 10:32 51°35.472 2°54.777 5.4 242 16.6 102530 82
2008-07-22 10:33 51°35.551 2°55.021 5.6 253 16.6 102520 82
2008-07-22 10:34 51°35.627 2°55.268 3.9 246 16.7 102510 82
2008-07-22 10:35 51°35.702 2°55.516 4.1 244 16.8 102520 81
2008-07-22 10:36 51°35.78 2°55.76 3.5 243 16.8 102510 81
2008-07-22 10:37 51°35.833 2°56.016 1.7 250 16.7 102510 80
2008-07-22 10:38 51°35.795 2°56.303 1.3 315 16.8 102520 81
2008-07-22 10:39 51°35.748 2°56.589 0.9 244 17 102520 82
2008-07-22 10:40 51°35.64 2°56.824 6.7 7 17.2 102520 81
2008-07-22 10:41 51°35.423 2°56.801 8.4 355 16.8 102520 78
2008-07-22 10:42 51°35.201 2°56.707 9.4 359 16.4 102490 80
2008-07-22 10:43 51°34.974 2°56.658 8.6 355 16.2 102510 83
2008-07-22 10:44 51°34.749 2°56.61 8.6 354 16 102500 84
2008-07-22 10:45 51°34.518 2°56.566 9 358 15.9 102510 84
2008-07-22 10:46 51°34.29 2°56.568 7.9 357 15.8 102510 84
2008-07-22 10:47 51°34.061 2°56.594 6.3 1 15.8 102500 85
2008-07-22 10:48 51°33.845 2°56.674 6.5 1 15.7 102510 84
2008-07-22 10:49 51°33.65 2°56.825 4.2 7 15.7 102520 85
2008-07-22 10:50 51°33.47 2°57.006 4.4 8 15.7 102530 84
2008-07-22 10:51 51°33.293 2°57.195 4 6 15.8 102530 85
2008-07-22 10:52 51°33.115 2°57.38 4.9 6 15.9 102530 85
2008-07-22 10:53 51°32.933 2°57.56 4.5 4 15.9 102530 84
2008-07-22 10:54 51°32.754 2°57.743 4.3 8 15.8 102530 84
2008-07-22 10:55 51°32.575 2°57.93 3.9 1 15.8 102530 84
2008-07-22 10:56 51°32.395 2°58.119 5 359 15.9 102530 84
2008-07-22 10:57 51°32.205 2°58.286 4.8 3 15.9 102530 84
2008-07-22 10:58 51°31.998 2°58.382 7.8 1 15.8 102530 83
2008-07-22 10:59 51°31.775 2°58.399 7.6 356 15.8 102510 83
2008-07-22 11:00 51°31.551 2°58.335 8.7 351 15.9 102520 84
2008-07-22 11:01 51°31.362 2°58.136 10.4 347 15.7 102510 83
2008-07-22 11:02 51°31.203 2°57.864 11.6 342 15.9 102510 84
2008-07-22 11:03 51°31.048 2°57.585 11.5 342 15.9 102520 83
2008-07-22 11:04 51°30.897 2°57.302 11.3 341 16 102500 83
2008-07-22 11:05 51°30.743 2°57.025 11.5 344 16 102510 82
2008-07-22 11:06 51°30.588 2°56.753 12 345 15.9 102510 82
2008-07-22 11:07 51°30.433 2°56.485 10.7 347 16 102510 82
2008-07-22 11:08 51°30.24 2°56.297 9.5 349 16 102510 82
2008-07-22 11:09 51°30.041 2°56.13 9.8 351 16 102520 83
2008-07-22 11:10 51°29.839 2°55.984 9.5 354 16.1 102520 85
2008-07-22 11:11 51°29.627 2°55.904 8.8 355 15.9 102530 84
2008-07-22 11:12 51°29.409 2°55.828 8.9 355 15.9 102520 83
2008-07-22 11:13 51°29.194 2°55.732 10 356 15.9 102520 82
2008-07-22 11:14 51°28.975 2°55.634 9.4 353 15.8 102520 82
2008-07-22 11:15 51°28.758 2°55.544 8 352 15.9 102520 82
2008-07-22 11:16 51°28.54 2°55.45 9.1 352 16 102520 83
2008-07-22 11:17 51°28.321 2°55.364 8.9 352 15.9 102520 82
2008-07-22 11:18 51°28.102 2°55.277 10.5 353 15.9 102520 82
2008-07-22 11:19 51°27.882 2°55.193 8.6 355 15.9 102520 82
2008-07-22 11:20 51°27.662 2°55.11 10.2 354 15.9 102540 82
2008-07-22 11:21 51°27.442 2°55.026 10.5 353 16 102520 83
2008-07-22 11:22 51°27.222 2°54.944 9.4 356 16 102520 83
2008-07-22 11:23 51°27.003 2°54.868 9 353 16 102530 84
2008-07-22 11:24 51°26.782 2°54.802 8.5 355 16 102530 83
2008-07-22 11:25 51°26.56 2°54.734 9.1 355 16 102520 83
2008-07-22 11:26 51°26.338 2°54.671 9.8 355 16 102530 83
2008-07-22 11:27 51°26.118 2°54.596 9.1 352 15.9 102530 83
2008-07-22 11:28 51°25.897 2°54.533 9.7 356 16 102540 83
2008-07-22 11:29 51°25.676 2°54.484 9.6 353 16 102540 82
2008-07-22 11:30 51°25.454 2°54.435 8.8 355 16 102520 83
2008-07-22 11:31 51°25.231 2°54.417 8.8 356 16 102530 83
2008-07-22 11:32 51°25.011 2°54.401 8.3 354 16 102530 82
2008-07-22 11:33 51°24.791 2°54.389 9.6 355 16.1 102530 83
2008-07-22 11:34 51°24.572 2°54.38 8.4 355 16.1 102540 83
2008-07-22 11:35 51°24.354 2°54.361 9.5 354 16 102540 83
2008-07-22 11:36 51°24.139 2°54.322 9.3 351 16 102520 82
2008-07-22 11:37 51°23.929 2°54.203 10.1 347 16.1 102540 82
2008-07-22 11:38 51°23.728 2°54.039 10.2 345 16 102530 80
2008-07-22 11:39 51°23.521 2°53.89 10.8 347 16.1 102530 81
2008-07-22 11:40 51°23.315 2°53.744 10.6 350 16.1 102540 81
2008-07-22 11:41 51°23.11 2°53.602 10.1 347 16.1 102540 81
2008-07-22 11:42 51°22.901 2°53.476 9.5 350 16.1 102530 80
2008-07-22 11:43 51°22.692 2°53.357 10.5 350 16.2 102530 82
2008-07-22 11:44 51°22.486 2°53.235 10.8 347 16.1 102540 81
2008-07-22 11:45 51°22.281 2°53.108 9.3 348 16.1 102540 80
2008-07-22 11:46 51°22.074 2°53.02 9.8 354 16.1 102540 80
2008-07-22 11:47 51°21.864 2°53.028 9.4 355 16.2 102540 80
2008-07-22 11:48 51°21.651 2°53.031 9.1 358 16.2 102530 81
2008-07-22 11:49 51°21.438 2°53.045 9.5 356 16.3 102530 82
2008-07-22 11:50 51°21.226 2°53.064 9.6 354 16.2 102540 81
2008-07-22 11:51 51°21.01 2°53.07 8.4 354 16.2 102540 80
2008-07-22 11:52 51°20.795 2°53.07 9.4 353 16.3 102540 81
2008-07-22 11:53 51°20.578 2°53.067 9.8 355 16.2 102540 80
2008-07-22 11:54 51°20.36 2°53.044 10.5 353 16.2 102540 80
2008-07-22 11:55 51°20.143 2°53.02 9.8 352 16.3 102530 80
2008-07-22 11:56 51°19.927 2°52.989 10 352 16.3 102530 81
2008-07-22 11:57 51°19.711 2°52.967 8.4 352 16.2 102530 79
2008-07-22 11:58 51°19.496 2°52.95 9.1 352 16.3 102530 80
2008-07-22 11:59 51°19.279 2°52.923 9.7 354 16.4 102530 81
2008-07-22 12:00 51°19.06 2°52.905 10 352 16.3 102530 79
2008-07-22 12:01 51°18.845 2°52.884 10.2 354 16.4 102530 80
2008-07-22 12:02 51°18.629 2°52.87 8.1 356 16.4 102530 80
2008-07-22 12:03 51°18.416 2°52.91 8.5 357 16.5 102530 81
2008-07-22 12:04 51°18.205 2°52.963 7.9 355 16.5 102540 81
2008-07-22 12:05 51°17.994 2°52.997 8.3 357 16.5 102530 80
2008-07-22 12:06 51°17.778 2°53.005 8.8 351 16.5 102530 81
2008-07-22 12:07 51°17.561 2°53.01 9.7 355 16.4 102530 81
2008-07-22 12:08 51°17.346 2°53.021 8.7 356 16.4 102530 80
2008-07-22 12:09 51°17.13 2°53.02 8.2 353 16.4 102530 80
2008-07-22 12:10 51°16.916 2°53.027 8.1 357 16.4 102540 81
2008-07-22 12:11 51°16.707 2°53.06 7.8 356 16.4 102530 81
2008-07-22 12:12 51°16.504 2°53.13 7.2 358 16.3 102530 80
2008-07-22 12:13 51°16.306 2°53.229 6.5 359 16.3 102540 79
2008-07-22 12:14 51°16.117 2°53.346 6.3 4 16.4 102530 79
2008-07-22 12:15 51°15.935 2°53.48 5.1 1 16.4 102540 79
2008-07-22 12:16 51°15.75 2°53.608 6.3 359 16.5 102530 79
2008-07-22 12:17 51°15.562 2°53.728 5.9 356 16.5 102540 79
2008-07-22 12:18 51°15.374 2°53.854 4.9 5 16.6 102540 80
2008-07-22 12:19 51°15.192 2°54.001 6 357 16.5 102540 78
2008-07-22 12:20 51°15.018 2°54.151 6.2 1 16.6 102540 79
2008-07-22 12:21 51°14.846 2°54.312 5.9 359 16.5 102540 79
2008-07-22 12:22 51°14.686 2°54.496 4.6 359 16.5 102540 78
2008-07-22 12:23 51°14.545 2°54.708 4.5 3 16.6 102540 80
2008-07-22 12:24 51°14.41 2°54.934 4 354 16.5 102540 79
2008-07-22 12:25 51°14.29 2°55.187 3.5 347 16.5 102540 79
2008-07-22 12:26 51°14.197 2°55.336 2.7 14 16.7 102540 80
2008-07-22 12:27 51°14.119 2°55.407 5 24 16.8 102540 80
2008-07-22 12:28 51°14.038 2°55.47 2.8 17 16.9 102540 77